Time,TemperatureF,DewpointF,PressureIn,WindDirection,WindDirectionDegrees,WindSpeedMPH,WindSpeedGustMPH,Humidity,HourlyPrecipIn,Conditions,Clouds,dailyrainin,SoftwareType,DateUTC
2013-04-20 00:01:00,32.2,28.2,29.74,SW,225,0.0,0.0,85,0.00,,,0.00,WUHU21623XXSP,2013-04-20 04:01:00,
2013-04-20 00:06:00,32.2,28.2,29.74,SSW,202,0.0,0.0,85,0.00,,,0.00,WUHU21623XXSP,2013-04-20 04:06:00,
2013-04-20 00:11:00,32.2,28.2,29.74,SSW,202,0.0,0.0,85,0.00,,,0.00,WUHU21623XXSP,2013-04-20 04:11:00,
2013-04-20 00:16:00,32.2,28.2,29.74,SW,225,0.0,0.0,85,0.00,,,0.00,WUHU21623XXSP,2013-04-20 04:16:00,
2013-04-20 00:21:00,32.2,27.9,29.74,SW,225,0.0,0.0,84,0.00,,,0.00,WUHU21623XXSP,2013-04-20 04:21:00,
2013-04-20 00:26:00,32.2,27.9,29.74,SW,225,6.9,6.9,84,0.00,,,0.00,WUHU21623XXSP,2013-04-20 04:26:00,
2013-04-20 00:31:00,32.2,27.9,29.74,SW,225,0.0,6.9,84,0.00,,,0.00,WUHU21623XXSP,2013-04-20 04:31:00,
2013-04-20 00:36:00,32.2,27.9,29.74,SW,225,10.7,10.7,84,0.00,,,0.00,WUHU21623XXSP,2013-04-20 04:36:00,
2013-04-20 00:41:00,32.2,27.9,29.74,SSW,202,6.9,10.7,84,0.00,,,0.00,WUHU21623XXSP,2013-04-20 04:41:00,
2013-04-20 00:46:00,32.2,27.9,29.75,SW,225,3.4,6.9,84,0.00,,,0.00,WUHU21623XXSP,2013-04-20 04:46:00,
2013-04-20 00:51:00,32.2,27.9,29.75,SW,225,5.8,5.8,84,0.00,,,0.00,WUHU21623XXSP,2013-04-20 04:51:00,
2013-04-20 00:56:00,32.2,27.6,29.75,SW,225,7.4,7.4,83,0.00,,,0.00,WUHU21623XXSP,2013-04-20 04:56:00,
2013-04-20 01:01:00,32.2,27.9,29.76,SSW,202,2.0,7.4,84,0.00,,,0.00,WUHU21623XXSP,2013-04-20 05:01:00,
2013-04-20 01:06:00,32.2,27.9,29.75,SW,225,2.9,7.4,84,0.00,,,0.00,WUHU21623XXSP,2013-04-20 05:06:00,
2013-04-20 01:11:00,32.2,27.9,29.76,SW,225,2.9,2.9,83,0.00,,,0.00,WUHU21623XXSP,2013-04-20 05:11:00,
2013-04-20 01:16:00,32.2,27.6,29.76,SSW,202,6.7,6.7,83,0.00,,,0.00,WUHU21623XXSP,2013-04-20 05:16:00,
2013-04-20 01:21:00,32.2,27.6,29.76,SSW,202,2.9,7.4,83,0.00,,,0.00,WUHU21623XXSP,2013-04-20 05:21:00,
2013-04-20 01:26:00,32.2,27.6,29.76,SW,225,5.1,7.4,83,0.00,,,0.00,WUHU21623XXSP,2013-04-20 05:26:00,
2013-04-20 01:31:00,32.2,27.6,29.76,SW,225,3.4,6.9,83,0.00,,,0.00,WUHU21623XXSP,2013-04-20 05:31:00,
2013-04-20 01:36:00,32.2,27.6,29.77,SSW,202,7.6,7.6,83,0.00,,,0.00,WUHU21623XXSP,2013-04-20 05:36:00,
2013-04-20 01:41:00,32.2,27.3,29.77,SW,225,4.5,7.6,82,0.00,,,0.00,WUHU21623XXSP,2013-04-20 05:41:00,
2013-04-20 01:46:00,32.2,27.3,29.77,SSW,202,4.3,4.5,82,0.00,,,0.00,WUHU21623XXSP,2013-04-20 05:46:00,
2013-04-20 01:51:00,32.2,27.3,29.78,SW,225,5.1,9.6,82,0.00,,,0.00,WUHU21623XXSP,2013-04-20 05:51:00,
2013-04-20 01:56:00,32.2,27.3,29.78,SW,225,3.8,9.6,82,0.00,,,0.00,WUHU21623XXSP,2013-04-20 05:56:00,
2013-04-20 02:01:00,32.2,27.3,29.78,SW,225,4.3,5.1,82,0.00,,,0.00,WUHU21623XXSP,2013-04-20 06:01:00,
2013-04-20 02:06:00,32.4,27.5,29.78,SSW,202,8.7,8.7,82,0.00,,,0.00,WUHU21623XXSP,2013-04-20 06:06:00,
2013-04-20 02:11:00,32.4,27.5,29.77,SW,225,2.5,8.7,82,0.00,,,0.00,WUHU21623XXSP,2013-04-20 06:11:00,
2013-04-20 02:16:00,32.4,27.5,29.78,SW,225,2.7,7.8,82,0.00,,,0.00,WUHU21623XXSP,2013-04-20 06:16:00,
2013-04-20 02:21:00,32.4,27.5,29.78,SW,225,7.4,7.4,82,0.00,,,0.00,WUHU21623XXSP,2013-04-20 06:21:00,
2013-04-20 02:26:00,32.4,27.7,29.78,SW,225,7.4,7.4,82,0.00,,,0.00,WUHU21623XXSP,2013-04-20 06:26:00,
2013-04-20 02:31:00,32.5,27.7,29.79,SW,225,7.4,7.4,82,0.00,,,0.00,WUHU21623XXSP,2013-04-20 06:31:00,
2013-04-20 02:36:00,32.5,27.7,29.78,SSW,202,8.5,13.2,82,0.00,,,0.00,WUHU21623XXSP,2013-04-20 06:36:00,
2013-04-20 02:41:00,32.5,27.4,29.79,SSW,202,8.5,13.2,81,0.00,,,0.00,WUHU21623XXSP,2013-04-20 06:41:00,
2013-04-20 02:46:00,32.5,27.4,29.79,SW,225,9.8,9.8,81,0.00,,,0.00,WUHU21623XXSP,2013-04-20 06:46:00,
2013-04-20 02:51:00,32.5,27.4,29.79,SSW,202,4.3,9.8,80,0.00,,,0.00,WUHU21623XXSP,2013-04-20 06:51:00,
2013-04-20 02:56:00,32.5,27.1,29.79,SSW,202,2.5,7.4,80,0.00,,,0.00,WUHU21623XXSP,2013-04-20 06:56:00,
2013-04-20 03:01:00,32.5,27.1,29.80,SSW,202,2.5,3.6,80,0.00,,,0.00,WUHU21623XXSP,2013-04-20 07:01:00,
2013-04-20 03:06:00,32.2,26.9,29.80,SSW,202,4.7,4.7,80,0.00,,,0.00,WUHU21623XXSP,2013-04-20 07:06:00,
2013-04-20 03:11:00,32.2,26.8,29.80,SSW,202,4.7,4.7,80,0.00,,,0.00,WUHU21623XXSP,2013-04-20 07:11:00,
2013-04-20 03:16:00,31.8,26.4,29.80,SSW,202,8.3,8.3,80,0.00,,,0.00,WUHU21623XXSP,2013-04-20 07:16:00,
2013-04-20 03:21:00,31.6,26.2,29.80,SW,225,3.4,8.3,80,0.00,,,0.00,WUHU21623XXSP,2013-04-20 07:21:00,
2013-04-20 03:26:00,31.6,26.2,29.80,SSW,202,3.4,6.9,80,0.00,,,0.00,WUHU21623XXSP,2013-04-20 07:26:00,
2013-04-20 03:31:00,31.5,25.9,29.81,SSW,202,3.4,3.4,79,0.00,,,0.00,WUHU21623XXSP,2013-04-20 07:31:00,
2013-04-20 03:36:00,31.3,25.2,29.81,SW,225,8.3,9.6,78,0.00,,,0.00,WUHU21623XXSP,2013-04-20 07:36:00,
2013-04-20 03:41:00,31.3,25.2,29.82,SW,225,2.7,9.6,78,0.00,,,0.00,WUHU21623XXSP,2013-04-20 07:41:00,
2013-04-20 03:46:00,31.3,25.2,29.82,SW,225,3.4,6.5,78,0.00,,,0.00,WUHU21623XXSP,2013-04-20 07:46:00,
2013-04-20 03:51:00,31.3,24.9,29.82,SSW,202,7.8,7.8,77,0.00,,,0.00,WUHU21623XXSP,2013-04-20 07:51:00,
2013-04-20 03:56:00,31.3,24.9,29.83,SSW,202,2.0,7.8,77,0.00,,,0.00,WUHU21623XXSP,2013-04-20 07:56:00,
2013-04-20 04:01:00,31.1,24.7,29.83,SSW,202,1.8,9.4,77,0.00,,,0.00,WUHU21623XXSP,2013-04-20 08:01:00,
2013-04-20 04:06:00,31.1,24.7,29.83,SSW,202,5.1,9.4,77,0.00,,,0.00,WUHU21623XXSP,2013-04-20 08:06:00,
2013-04-20 04:11:00,30.9,24.5,29.84,SSW,202,0.4,8.1,77,0.00,,,0.00,WUHU21623XXSP,2013-04-20 08:11:00,
2013-04-20 04:16:00,30.9,24.2,29.84,South,180,4.5,7.8,76,0.00,,,0.00,WUHU21623XXSP,2013-04-20 08:16:00,
2013-04-20 04:21:00,30.7,23.7,29.84,SW,225,6.9,6.9,75,0.00,,,0.00,WUHU21623XXSP,2013-04-20 08:21:00,
2013-04-20 04:26:00,30.7,23.7,29.85,SW,225,11.0,11.0,75,0.00,,,0.00,WUHU21623XXSP,2013-04-20 08:26:00,
2013-04-20 04:31:00,30.7,23.4,29.85,SSW,202,11.0,11.0,74,0.00,,,0.00,WUHU21623XXSP,2013-04-20 08:31:00,
2013-04-20 04:36:00,30.6,22.9,29.85,SW,225,0.0,11.0,73,0.00,,,0.00,WUHU21623XXSP,2013-04-20 08:36:00,
2013-04-20 04:41:00,30.4,22.7,29.86,North,0,3.8,6.5,73,0.00,,,0.00,WUHU21623XXSP,2013-04-20 08:41:00,
2013-04-20 04:46:00,30.4,22.7,29.86,SSW,202,8.5,8.5,73,0.00,,,0.00,WUHU21623XXSP,2013-04-20 08:46:00,
2013-04-20 04:51:00,30.2,22.5,29.87,SSW,202,5.4,8.5,73,0.00,,,0.00,WUHU21623XXSP,2013-04-20 08:51:00,
2013-04-20 04:56:00,30.0,22.0,29.87,SW,225,5.1,6.9,72,0.00,,,0.00,WUHU21623XXSP,2013-04-20 08:56:00,
2013-04-20 05:01:00,30.0,21.7,29.87,North,0,8.5,8.5,71,0.00,,,0.00,WUHU21623XXSP,2013-04-20 09:01:00,
2013-04-20 05:06:00,30.0,21.7,29.88,SSW,202,3.8,8.5,71,0.00,,,0.00,WUHU21623XXSP,2013-04-20 09:06:00,
2013-04-20 05:11:00,30.0,21.7,29.88,SSW,202,7.4,12.5,71,0.00,,,0.00,WUHU21623XXSP,2013-04-20 09:11:00,
2013-04-20 05:16:00,29.8,21.5,29.88,SSW,202,0.0,12.5,71,0.00,,,0.00,WUHU21623XXSP,2013-04-20 09:16:00,
2013-04-20 05:21:00,29.7,21.4,29.89,North,0,5.1,8.1,71,0.00,,,0.00,WUHU21623XXSP,2013-04-20 09:21:00,
2013-04-20 05:26:00,29.5,21.2,29.88,SW,225,0.0,8.1,71,0.00,,,0.00,WUHU21623XXSP,2013-04-20 09:26:00,
2013-04-20 05:31:00,29.3,21.1,29.89,North,0,8.5,8.5,71,0.00,,,0.00,WUHU21623XXSP,2013-04-20 09:31:00,
2013-04-20 05:36:00,29.1,20.9,29.89,SSW,202,1.6,8.5,71,0.00,,,0.00,WUHU21623XXSP,2013-04-20 09:36:00,
2013-04-20 05:41:00,29.1,20.9,29.89,SW,225,7.4,7.4,71,0.00,,,0.00,WUHU21623XXSP,2013-04-20 09:41:00,
2013-04-20 05:46:00,28.9,20.7,29.90,SW,225,2.7,7.4,71,0.00,,,0.00,WUHU21623XXSP,2013-04-20 09:46:00,
2013-04-20 05:51:00,28.8,20.3,29.90,SW,225,4.3,9.6,70,0.00,,,0.00,WUHU21623XXSP,2013-04-20 09:51:00,
2013-04-20 05:56:00,28.8,20.3,29.90,SSW,202,1.6,9.6,70,0.00,,,0.00,WUHU21623XXSP,2013-04-20 09:56:00,
2013-04-20 06:01:00,28.6,20.1,29.90,North,0,3.8,6.9,70,0.00,,,0.00,WUHU21623XXSP,2013-04-20 10:01:00,
2013-04-20 06:06:00,28.6,20.1,29.91,NNW,337,6.9,7.6,70,0.00,,,0.00,WUHU21623XXSP,2013-04-20 10:06:00,
2013-04-20 06:11:00,28.6,20.1,29.91,SW,225,1.6,7.6,70,0.00,,,0.00,WUHU21623XXSP,2013-04-20 10:11:00,
2013-04-20 06:16:00,28.2,19.8,29.91,SSW,202,10.1,10.1,70,0.00,,,0.00,WUHU21623XXSP,2013-04-20 10:16:00,
2013-04-20 06:21:00,28.2,19.4,29.92,SSW,202,8.3,10.1,69,0.00,,,0.00,WUHU21623XXSP,2013-04-20 10:21:00,
2013-04-20 06:26:00,28.2,19.4,29.92,NNW,337,0.0,8.3,69,0.00,,,0.00,WUHU21623XXSP,2013-04-20 10:26:00,
2013-04-20 06:31:00,28.2,19.4,29.93,SSW,202,7.2,7.2,69,0.00,,,0.00,WUHU21623XXSP,2013-04-20 10:31:00,
2013-04-20 06:35:00,28.2,19.4,29.93,North,0,3.6,7.2,69,0.00,,,0.00,WUHU21623XXSP,2013-04-20 10:35:00,
2013-04-20 06:40:00,28.2,19.0,29.93,North,0,7.2,7.2,68,0.00,,,0.00,WUHU21623XXSP,2013-04-20 10:40:00,
2013-04-20 06:45:00,28.2,19.0,29.94,SSW,202,9.4,13.2,68,0.00,,,0.00,WUHU21623XXSP,2013-04-20 10:45:00,
2013-04-20 06:50:00,28.0,17.8,29.94,North,0,7.6,13.2,65,0.00,,,0.00,WUHU21623XXSP,2013-04-20 10:50:00,
2013-04-20 06:55:00,28.0,17.4,29.95,North,0,7.6,12.1,65,0.00,,,0.00,WUHU21623XXSP,2013-04-20 10:55:00,
2013-04-20 07:00:00,27.7,17.4,29.96,SSW,202,3.4,7.6,65,0.00,,,0.00,WUHU21623XXSP,2013-04-20 11:00:00,
2013-04-20 07:05:00,27.5,17.2,29.96,North,0,9.2,9.2,65,0.00,,,0.00,WUHU21623XXSP,2013-04-20 11:05:00,
2013-04-20 07:10:00,27.5,16.9,29.96,North,0,8.1,9.2,64,0.00,,,0.00,WUHU21623XXSP,2013-04-20 11:10:00,
2013-04-20 07:15:00,27.3,17.1,29.97,SW,225,2.5,9.2,65,0.00,,,0.00,WUHU21623XXSP,2013-04-20 11:15:00,
2013-04-20 07:20:00,27.3,17.1,29.97,SW,225,2.5,6.7,65,0.00,,,0.00,WUHU21623XXSP,2013-04-20 11:20:00,
2013-04-20 07:25:00,27.3,17.1,29.98,SW,225,6.5,6.5,65,0.00,,,0.00,WUHU21623XXSP,2013-04-20 11:25:00,
2013-04-20 07:30:00,27.1,16.9,29.98,SSW,202,4.3,6.5,65,0.00,,,0.00,WUHU21623XXSP,2013-04-20 11:30:00,
2013-04-20 07:35:00,27.1,16.2,29.98,SW,225,7.8,7.8,63,0.00,,,0.00,WUHU21623XXSP,2013-04-20 11:35:00,
2013-04-20 07:40:00,27.1,16.2,29.99,North,0,11.4,11.4,63,0.00,,,0.00,WUHU21623XXSP,2013-04-20 11:40:00,
2013-04-20 07:45:00,27.1,15.8,29.99,North,0,13.0,13.0,62,0.00,,,0.00,WUHU21623XXSP,2013-04-20 11:45:00,
2013-04-20 07:50:00,27.3,15.8,30.00,SW,225,5.4,13.0,62,0.00,,,0.00,WUHU21623XXSP,2013-04-20 11:50:00,
2013-04-20 07:55:00,27.3,16.0,30.00,SW,225,0.0,5.4,62,0.00,,,0.00,WUHU21623XXSP,2013-04-20 11:55:00,
2013-04-20 08:00:00,27.3,16.0,30.00,North,0,7.4,7.4,62,0.00,,,0.00,WUHU21623XXSP,2013-04-20 12:00:00,
2013-04-20 08:05:00,27.3,16.2,30.00,SSW,202,6.0,7.4,62,0.00,,,0.00,WUHU21623XXSP,2013-04-20 12:05:00,
2013-04-20 08:10:00,27.5,16.2,30.01,SSW,202,6.0,6.0,62,0.00,,,0.00,WUHU21623XXSP,2013-04-20 12:10:00,
2013-04-20 08:15:00,27.7,16.3,30.01,NNW,337,6.0,6.0,62,0.00,,,0.00,WUHU21623XXSP,2013-04-20 12:15:00,
2013-04-20 08:20:00,27.7,16.3,30.02,SW,225,3.4,6.0,62,0.00,,,0.00,WUHU21623XXSP,2013-04-20 12:20:00,
2013-04-20 08:25:00,28.0,16.7,30.02,SSW,202,3.1,6.0,62,0.00,,,0.00,WUHU21623XXSP,2013-04-20 12:25:00,
2013-04-20 08:30:00,28.2,16.9,30.02,North,0,5.8,9.6,62,0.00,,,0.00,WUHU21623XXSP,2013-04-20 12:30:00,
2013-04-20 08:35:00,28.4,17.1,30.02,SW,225,6.5,9.6,62,0.00,,,0.00,WUHU21623XXSP,2013-04-20 12:35:00,
2013-04-20 08:40:00,28.6,17.2,30.03,North,0,3.6,7.4,62,0.00,,,0.00,WUHU21623XXSP,2013-04-20 12:40:00,
2013-04-20 08:45:00,28.6,17.2,30.03,North,0,2.0,6.7,62,0.00,,,0.00,WUHU21623XXSP,2013-04-20 12:45:00,
2013-04-20 08:50:00,28.8,17.4,30.04,SSW,202,2.7,2.7,62,0.00,,,0.00,WUHU21623XXSP,2013-04-20 12:50:00,
2013-04-20 08:55:00,28.9,17.5,30.04,NNW,337,0.0,6.9,62,0.00,,,0.00,WUHU21623XXSP,2013-04-20 12:55:00,
2013-04-20 09:00:00,29.1,18.1,30.04,SSW,202,4.0,8.9,63,0.00,,,0.00,WUHU21623XXSP,2013-04-20 13:00:00,
2013-04-20 09:05:00,29.1,17.7,30.04,North,0,5.8,8.9,62,0.00,,,0.00,WUHU21623XXSP,2013-04-20 13:05:00,
2013-04-20 09:10:00,29.1,18.1,30.05,SSW,202,6.0,7.6,63,0.00,,,0.00,WUHU21623XXSP,2013-04-20 13:10:00,
2013-04-20 09:15:00,29.3,18.2,30.05,SSW,202,4.3,6.0,63,0.00,,,0.00,WUHU21623XXSP,2013-04-20 13:15:00,
2013-04-20 09:20:00,29.5,18.4,30.06,SW,225,3.8,4.3,63,0.00,,,0.00,WUHU21623XXSP,2013-04-20 13:20:00,
2013-04-20 09:25:00,29.5,18.4,30.06,North,0,1.3,7.4,63,0.00,,,0.00,WUHU21623XXSP,2013-04-20 13:25:00,
2013-04-20 09:30:00,29.5,18.4,30.06,SW,225,7.4,7.4,63,0.00,,,0.00,WUHU21623XXSP,2013-04-20 13:30:00,
2013-04-20 09:35:00,29.7,18.6,30.06,North,0,2.0,7.4,63,0.00,,,0.00,WUHU21623XXSP,2013-04-20 13:35:00,
2013-04-20 09:40:00,29.7,17.8,30.07,South,180,2.9,3.8,61,0.00,,,0.00,WUHU21623XXSP,2013-04-20 13:40:00,
2013-04-20 09:45:00,29.8,17.8,30.07,North,0,6.7,6.7,61,0.00,,,0.00,WUHU21623XXSP,2013-04-20 13:45:00,
2013-04-20 09:50:00,29.8,18.4,30.06,SW,225,4.7,6.7,62,0.00,,,0.00,WUHU21623XXSP,2013-04-20 13:50:00,
2013-04-20 09:55:00,30.0,18.2,30.07,North,0,11.6,11.6,61,0.00,,,0.00,WUHU21623XXSP,2013-04-20 13:55:00,
2013-04-20 10:00:00,30.2,18.3,30.08,North,0,6.0,11.6,61,0.00,,,0.00,WUHU21623XXSP,2013-04-20 14:00:00,
2013-04-20 10:05:00,30.4,18.1,30.08,SSW,202,0.0,9.4,60,0.00,,,0.00,WUHU21623XXSP,2013-04-20 14:05:00,
2013-04-20 10:10:00,30.6,18.1,30.08,North,0,6.5,9.4,60,0.00,,,0.00,WUHU21623XXSP,2013-04-20 14:10:00,
2013-04-20 10:15:00,30.7,18.9,30.09,SSW,202,2.5,6.5,61,0.00,,,0.00,WUHU21623XXSP,2013-04-20 14:15:00,
2013-04-20 10:20:00,30.9,18.9,30.09,North,0,6.7,6.7,61,0.00,,,0.00,WUHU21623XXSP,2013-04-20 14:20:00,
2013-04-20 10:25:00,31.1,19.2,30.09,SSW,202,1.8,6.7,61,0.00,,,0.00,WUHU21623XXSP,2013-04-20 14:25:00,
2013-04-20 10:30:00,31.3,19.4,30.10,North,0,7.2,7.2,61,0.00,,,0.00,WUHU21623XXSP,2013-04-20 14:30:00,
2013-04-20 10:35:00,31.3,19.0,30.10,SW,225,1.3,7.2,60,0.00,,,0.00,WUHU21623XXSP,2013-04-20 14:35:00,
2013-04-20 10:40:00,31.3,19.4,30.10,SW,225,2.7,6.5,61,0.00,,,0.00,WUHU21623XXSP,2013-04-20 14:40:00,
2013-04-20 10:45:00,31.6,19.4,30.11,SW,225,4.7,6.5,60,0.00,,,0.00,WUHU21623XXSP,2013-04-20 14:45:00,
2013-04-20 10:50:00,31.8,19.6,30.11,SW,225,4.0,13.6,60,0.00,,,0.00,WUHU21623XXSP,2013-04-20 14:50:00,
2013-04-20 10:55:00,31.8,19.1,30.11,SSW,202,8.7,13.6,59,0.00,,,0.00,WUHU21623XXSP,2013-04-20 14:55:00,
2013-04-20 11:00:00,32.2,19.5,30.11,NNW,337,6.5,11.6,59,0.00,,,0.00,WUHU21623XXSP,2013-04-20 15:00:00,
2013-04-20 11:05:00,32.2,19.5,30.11,North,0,6.3,11.6,59,0.00,,,0.00,WUHU21623XXSP,2013-04-20 15:05:00,
2013-04-20 11:10:00,32.5,19.8,30.12,SW,225,1.1,6.7,59,0.00,,,0.00,WUHU21623XXSP,2013-04-20 15:10:00,
2013-04-20 11:15:00,32.7,20.0,30.12,SW,225,3.6,6.9,59,0.00,,,0.00,WUHU21623XXSP,2013-04-20 15:15:00,
2013-04-20 11:20:00,32.9,20.1,30.12,SW,225,7.4,13.0,59,0.00,,,0.00,WUHU21623XXSP,2013-04-20 15:20:00,
2013-04-20 11:25:00,33.1,20.3,30.13,North,0,8.5,13.0,59,0.00,,,0.00,WUHU21623XXSP,2013-04-20 15:25:00,
2013-04-20 11:30:00,33.6,20.8,30.13,SSW,202,3.6,8.5,59,0.00,,,0.00,WUHU21623XXSP,2013-04-20 15:30:00,
2013-04-20 11:35:00,33.6,20.8,30.13,SW,225,0.9,8.5,59,0.00,,,0.00,WUHU21623XXSP,2013-04-20 15:35:00,
2013-04-20 11:40:00,33.8,20.1,30.14,North,0,13.4,13.4,57,0.00,,,0.00,WUHU21623XXSP,2013-04-20 15:40:00,
2013-04-20 11:45:00,34.0,20.3,30.14,North,0,4.9,13.4,57,0.00,,,0.00,WUHU21623XXSP,2013-04-20 15:45:00,
2013-04-20 11:50:00,34.0,20.3,30.14,SW,225,3.4,4.9,57,0.00,,,0.00,WUHU21623XXSP,2013-04-20 15:50:00,
2013-04-20 11:55:00,34.0,20.3,30.14,North,0,0.0,8.3,57,0.00,,,0.00,WUHU21623XXSP,2013-04-20 15:55:00,
2013-04-20 12:00:00,34.3,21.1,30.14,SW,225,2.7,8.3,58,0.00,,,0.00,WUHU21623XXSP,2013-04-20 16:00:00,
2013-04-20 12:05:00,34.3,21.1,30.15,SSW,202,6.3,6.3,58,0.00,,,0.00,WUHU21623XXSP,2013-04-20 16:05:00,
2013-04-20 12:10:00,34.3,21.1,30.15,North,0,0.0,6.9,58,0.00,,,0.00,WUHU21623XXSP,2013-04-20 16:10:00,
2013-04-20 12:15:00,34.3,20.6,30.15,NNW,337,13.0,13.0,57,0.00,,,0.00,WUHU21623XXSP,2013-04-20 16:15:00,
2013-04-20 12:20:00,34.3,20.6,30.16,SW,225,0.0,13.0,57,0.00,,,0.00,WUHU21623XXSP,2013-04-20 16:20:00,
2013-04-20 12:25:00,34.3,20.6,30.16,SSW,202,1.3,9.4,57,0.00,,,0.00,WUHU21623XXSP,2013-04-20 16:25:00,
2013-04-20 12:30:00,34.5,20.8,30.16,SSW,202,3.8,9.4,57,0.00,,,0.00,WUHU21623XXSP,2013-04-20 16:30:00,
2013-04-20 12:35:00,34.9,21.6,30.16,SSW,202,3.1,3.8,58,0.00,,,0.00,WUHU21623XXSP,2013-04-20 16:35:00,
2013-04-20 12:40:00,35.4,21.7,30.16,SSW,202,0.9,4.9,57,0.00,,,0.00,WUHU21623XXSP,2013-04-20 16:40:00,
2013-04-20 12:45:00,35.8,22.0,30.16,SSW,202,2.9,4.9,57,0.00,,,0.00,WUHU21623XXSP,2013-04-20 16:45:00,
2013-04-20 12:50:00,35.8,21.6,30.16,SSW,202,8.3,8.3,56,0.00,,,0.00,WUHU21623XXSP,2013-04-20 16:50:00,
2013-04-20 12:55:00,35.6,21.5,30.17,North,0,6.5,8.7,56,0.00,,,0.00,WUHU21623XXSP,2013-04-20 16:55:00,
2013-04-20 13:00:00,35.4,21.3,30.16,SW,225,6.7,8.7,56,0.00,,,0.00,WUHU21623XXSP,2013-04-20 17:00:00,
2013-04-20 13:05:00,35.4,21.3,30.17,SSW,202,6.9,12.1,56,0.00,,,0.00,WUHU21623XXSP,2013-04-20 17:05:00,
2013-04-20 13:10:00,35.4,21.3,30.17,SW,225,6.9,12.1,56,0.00,,,0.00,WUHU21623XXSP,2013-04-20 17:10:00,
2013-04-20 13:15:00,35.4,21.3,30.17,SW,225,6.0,7.4,56,0.00,,,0.00,WUHU21623XXSP,2013-04-20 17:15:00,
2013-04-20 13:20:00,35.4,21.3,30.17,SW,225,2.0,6.0,56,0.00,,,0.00,WUHU21623XXSP,2013-04-20 17:20:00,
2013-04-20 13:25:00,35.4,21.7,30.18,SW,225,2.9,4.5,57,0.00,,,0.00,WUHU21623XXSP,2013-04-20 17:25:00,
2013-04-20 13:30:00,35.4,21.3,30.18,NNW,337,6.9,7.6,56,0.00,,,0.00,WUHU21623XXSP,2013-04-20 17:30:00,
2013-04-20 13:35:00,35.8,21.6,30.18,SW,225,0.0,7.6,57,0.00,,,0.00,WUHU21623XXSP,2013-04-20 17:35:00,
2013-04-20 13:40:00,35.6,21.5,30.19,SW,225,2.0,6.9,56,0.00,,,0.00,WUHU21623XXSP,2013-04-20 17:40:00,
2013-04-20 13:45:00,35.4,21.6,30.19,SW,225,2.0,6.0,56,0.00,,,0.00,WUHU21623XXSP,2013-04-20 17:45:00,
2013-04-20 13:50:00,35.8,22.0,30.19,SW,225,2.0,2.0,57,0.00,,,0.00,WUHU21623XXSP,2013-04-20 17:50:00,
2013-04-20 13:55:00,36.1,22.4,30.19,SSW,202,4.0,4.0,57,0.00,,,0.00,WUHU21623XXSP,2013-04-20 17:55:00,
2013-04-20 14:00:00,36.1,22.4,30.19,SW,225,3.4,4.7,57,0.00,,,0.00,WUHU21623XXSP,2013-04-20 18:00:00,
2013-04-20 14:05:00,36.0,21.3,30.19,SSW,202,6.9,6.9,55,0.00,,,0.00,WUHU21623XXSP,2013-04-20 18:05:00,
2013-04-20 14:10:00,36.7,22.4,30.19,SW,225,12.5,12.5,56,0.00,,,0.00,WUHU21623XXSP,2013-04-20 18:10:00,
2013-04-20 14:15:00,36.7,22.0,30.20,SW,225,6.9,12.5,55,0.00,,,0.00,WUHU21623XXSP,2013-04-20 18:15:00,
2013-04-20 14:20:00,37.2,22.5,30.20,SW,225,8.7,8.7,55,0.00,,,0.00,WUHU21623XXSP,2013-04-20 18:20:00,
2013-04-20 14:25:00,37.2,22.0,30.20,SW,225,0.0,8.7,54,0.00,,,0.00,WUHU21623XXSP,2013-04-20 18:25:00,
2013-04-20 14:30:00,37.4,22.2,30.21,SSW,202,0.0,6.9,54,0.00,,,0.00,WUHU21623XXSP,2013-04-20 18:30:00,
2013-04-20 14:35:00,37.8,22.5,30.21,SW,225,5.6,5.6,54,0.00,,,0.00,WUHU21623XXSP,2013-04-20 18:35:00,
2013-04-20 14:40:00,37.9,22.3,30.22,SW,225,0.0,5.6,53,0.00,,,0.00,WUHU21623XXSP,2013-04-20 18:40:00,
2013-04-20 14:45:00,37.9,22.7,30.22,North,0,2.9,5.4,54,0.00,,,0.00,WUHU21623XXSP,2013-04-20 18:45:00,
2013-04-20 14:50:00,38.1,22.4,30.22,SSW,202,5.8,7.8,53,0.00,,,0.00,WUHU21623XXSP,2013-04-20 18:50:00,
2013-04-20 14:55:00,38.1,22.4,30.22,SW,225,2.5,7.8,53,0.00,,,0.00,WUHU21623XXSP,2013-04-20 18:55:00,
2013-04-20 15:00:00,37.9,22.3,30.22,SSW,202,6.5,6.5,53,0.00,,,0.00,WUHU21623XXSP,2013-04-20 19:00:00,
2013-04-20 15:05:00,37.9,22.3,30.22,North,0,7.2,7.2,53,0.00,,,0.00,WUHU21623XXSP,2013-04-20 19:05:00,
2013-04-20 15:10:00,37.8,21.7,30.22,SSW,202,5.8,7.2,52,0.00,,,0.00,WUHU21623XXSP,2013-04-20 19:10:00,
2013-04-20 15:15:00,37.4,21.8,30.23,NNW,337,6.3,6.3,53,0.00,,,0.00,WUHU21623XXSP,2013-04-20 19:15:00,
2013-04-20 15:20:00,37.2,21.6,30.23,North,0,0.0,6.3,54,0.00,,,0.00,WUHU21623XXSP,2013-04-20 19:20:00,
2013-04-20 15:25:00,37.0,22.3,30.23,NNW,337,6.9,6.9,55,0.00,,,0.00,WUHU21623XXSP,2013-04-20 19:25:00,
2013-04-20 15:30:00,37.0,22.3,30.23,North,0,8.5,8.5,55,0.00,,,0.00,WUHU21623XXSP,2013-04-20 19:30:00,
2013-04-20 15:35:00,37.0,22.7,30.23,SSW,202,3.6,8.5,56,0.00,,,0.00,WUHU21623XXSP,2013-04-20 19:35:00,
2013-04-20 15:40:00,37.4,23.1,30.24,SSW,202,6.5,8.1,56,0.00,,,0.00,WUHU21623XXSP,2013-04-20 19:40:00,
2013-04-20 15:45:00,37.8,23.0,30.24,SW,225,0.0,8.9,55,0.00,,,0.00,WUHU21623XXSP,2013-04-20 19:45:00,
2013-04-20 15:50:00,37.8,22.5,30.23,SSW,202,6.0,8.9,54,0.00,,,0.00,WUHU21623XXSP,2013-04-20 19:50:00,
2013-04-20 15:55:00,37.9,23.6,30.24,SSW,202,10.5,10.5,56,0.00,,,0.00,WUHU21623XXSP,2013-04-20 19:55:00,
2013-04-20 16:00:00,38.5,24.0,30.24,North,0,2.2,10.5,56,0.00,,,0.00,WUHU21623XXSP,2013-04-20 20:00:00,
2013-04-20 16:05:00,38.8,23.9,30.24,SSW,202,0.0,12.3,55,0.00,,,0.00,WUHU21623XXSP,2013-04-20 20:05:00,
2013-04-20 16:10:00,39.0,23.7,30.24,SSW,202,6.0,12.3,54,0.00,,,0.00,WUHU21623XXSP,2013-04-20 20:10:00,
2013-04-20 16:15:00,39.4,24.0,30.24,SSW,202,2.0,7.8,54,0.00,,,0.00,WUHU21623XXSP,2013-04-20 20:15:00,
2013-04-20 16:20:00,39.7,24.3,30.24,SSW,202,6.5,6.5,54,0.00,,,0.00,WUHU21623XXSP,2013-04-20 20:20:00,
2013-04-20 16:25:00,39.7,23.4,30.24,SW,225,6.0,7.8,52,0.00,,,0.00,WUHU21623XXSP,2013-04-20 20:25:00,
2013-04-20 16:30:00,39.7,23.4,30.24,NNW,337,3.1,7.8,52,0.00,,,0.00,WUHU21623XXSP,2013-04-20 20:30:00,
2013-04-20 16:35:00,39.7,23.4,30.25,SSW,202,0.0,6.5,52,0.00,,,0.00,WUHU21623XXSP,2013-04-20 20:35:00,
2013-04-20 16:40:00,39.0,23.2,30.26,North,0,6.0,6.5,53,0.00,,,0.00,WUHU21623XXSP,2013-04-20 20:40:00,
2013-04-20 16:45:00,38.8,23.7,30.25,NNW,337,4.7,6.0,54,0.00,,,0.00,WUHU21623XXSP,2013-04-20 20:45:00,
2013-04-20 16:50:00,38.5,23.2,30.25,SW,225,0.0,4.7,54,0.00,,,0.00,WUHU21623XXSP,2013-04-20 20:50:00,
2013-04-20 16:55:00,37.9,23.3,30.27,NNW,337,6.0,6.0,55,0.00,,,0.00,WUHU21623XXSP,2013-04-20 20:55:00,
2013-04-20 17:00:00,37.8,23.4,30.27,SSW,202,2.7,6.0,56,0.00,,,0.00,WUHU21623XXSP,2013-04-20 21:00:00,
2013-04-20 17:05:00,37.4,23.1,30.27,North,0,7.4,7.4,56,0.00,,,0.00,WUHU21623XXSP,2013-04-20 21:05:00,
2013-04-20 17:10:00,37.8,23.4,30.26,SW,225,8.3,8.3,56,0.00,,,0.00,WUHU21623XXSP,2013-04-20 21:10:00,
2013-04-20 17:15:00,37.8,23.0,30.27,SW,225,3.6,8.3,55,0.00,,,0.00,WUHU21623XXSP,2013-04-20 21:15:00,
2013-04-20 17:20:00,37.8,23.0,30.27,SW,225,0.7,3.6,55,0.00,,,0.00,WUHU21623XXSP,2013-04-20 21:20:00,
2013-04-20 17:24:00,37.9,23.1,30.27,SW,225,5.6,5.6,54,0.00,,,0.00,WUHU21623XXSP,2013-04-20 21:24:00,
2013-04-20 17:30:00,37.9,22.7,30.28,SW,225,1.6,5.6,54,0.00,,,0.00,WUHU21623XXSP,2013-04-20 21:30:00,
2013-04-20 17:34:00,38.1,22.4,30.28,SW,225,7.6,7.6,53,0.00,,,0.00,WUHU21623XXSP,2013-04-20 21:34:00,
2013-04-20 17:39:00,38.3,22.6,30.28,SW,225,2.7,7.6,53,0.00,,,0.00,WUHU21623XXSP,2013-04-20 21:39:00,
2013-04-20 17:44:00,38.1,22.9,30.29,SW,225,4.7,7.6,54,0.00,,,0.00,WUHU21623XXSP,2013-04-20 21:44:00,
2013-04-20 17:49:00,38.3,23.0,30.29,NNW,337,5.8,7.6,54,0.00,,,0.00,WUHU21623XXSP,2013-04-20 21:49:00,
2013-04-20 17:54:00,37.9,23.1,30.29,SSW,202,0.0,7.6,55,0.00,,,0.00,WUHU21623XXSP,2013-04-20 21:54:00,
2013-04-20 17:59:00,37.9,23.1,30.29,North,0,0.0,7.4,55,0.00,,,0.00,WUHU21623XXSP,2013-04-20 21:59:00,
2013-04-20 18:04:00,37.6,22.8,30.29,North,0,0.0,7.4,55,0.00,,,0.00,WUHU21623XXSP,2013-04-20 22:04:00,
2013-04-20 18:09:00,37.4,22.2,30.29,North,0,7.6,7.6,54,0.00,,,0.00,WUHU21623XXSP,2013-04-20 22:09:00,
2013-04-20 18:14:00,37.2,22.5,30.29,NNW,337,8.5,8.5,55,0.00,,,0.00,WUHU21623XXSP,2013-04-20 22:14:00,
2013-04-20 18:19:00,37.0,22.7,30.29,SSW,202,1.3,8.5,56,0.00,,,0.00,WUHU21623XXSP,2013-04-20 22:19:00,
2013-04-20 18:24:00,36.9,23.0,30.29,North,0,6.7,8.5,57,0.00,,,0.00,WUHU21623XXSP,2013-04-20 22:24:00,
2013-04-20 18:29:00,36.7,22.4,30.30,SSW,202,1.1,6.9,56,0.00,,,0.00,WUHU21623XXSP,2013-04-20 22:29:00,
2013-04-20 18:34:00,36.7,22.4,30.30,North,0,11.0,11.0,56,0.00,,,0.00,WUHU21623XXSP,2013-04-20 22:34:00,
2013-04-20 18:39:00,36.7,22.0,30.31,SW,225,4.9,11.0,55,0.00,,,0.00,WUHU21623XXSP,2013-04-20 22:39:00,
2013-04-20 18:44:00,36.7,22.0,30.31,NNW,337,10.7,10.7,55,0.00,,,0.00,WUHU21623XXSP,2013-04-20 22:44:00,
2013-04-20 18:49:00,36.9,22.2,30.31,SSW,202,8.1,10.7,55,0.00,,,0.00,WUHU21623XXSP,2013-04-20 22:49:00,
2013-04-20 18:54:00,36.7,22.0,30.32,NNW,337,6.7,8.1,55,0.00,,,0.00,WUHU21623XXSP,2013-04-20 22:54:00,
2013-04-20 18:59:00,36.5,22.3,30.32,NNW,337,6.7,6.7,56,0.00,,,0.00,WUHU21623XXSP,2013-04-20 22:59:00,
2013-04-20 19:04:00,36.3,22.1,30.32,NNW,337,8.3,8.3,56,0.00,,,0.00,WUHU21623XXSP,2013-04-20 23:04:00,
2013-04-20 19:09:00,36.1,22.4,30.32,SSW,202,0.0,8.3,57,0.00,,,0.00,WUHU21623XXSP,2013-04-20 23:09:00,
2013-04-20 19:14:00,36.1,22.4,30.32,SSW,202,0.0,3.8,57,0.00,,,0.00,WUHU21623XXSP,2013-04-20 23:14:00,
2013-04-20 19:19:00,36.1,22.4,30.32,SSW,202,0.0,0.0,57,0.00,,,0.00,WUHU21623XXSP,2013-04-20 23:19:00,
2013-04-20 19:24:00,36.0,22.2,30.32,North,0,6.5,7.2,57,0.00,,,0.00,WUHU21623XXSP,2013-04-20 23:24:00,
2013-04-20 19:29:00,35.8,21.6,30.32,NNW,337,7.8,7.8,56,0.00,,,0.00,WUHU21623XXSP,2013-04-20 23:29:00,
2013-04-20 19:34:00,35.4,21.7,30.32,NNW,337,5.1,7.8,57,0.00,,,0.00,WUHU21623XXSP,2013-04-20 23:34:00,
2013-04-20 19:39:00,35.4,21.7,30.32,SSW,202,0.0,6.0,57,0.00,,,0.00,WUHU21623XXSP,2013-04-20 23:39:00,
2013-04-20 19:44:00,35.4,22.1,30.33,North,0,0.0,6.0,58,0.00,,,0.00,WUHU21623XXSP,2013-04-20 23:44:00,
2013-04-20 19:49:00,35.2,22.1,30.33,North,0,7.8,7.8,58,0.00,,,0.00,WUHU21623XXSP,2013-04-20 23:49:00,
2013-04-20 19:54:00,35.2,22.0,30.33,SW,225,1.6,7.8,58,0.00,,,0.00,WUHU21623XXSP,2013-04-20 23:54:00,
2013-04-20 19:59:00,34.9,21.2,30.33,SW,225,0.0,4.5,57,0.00,,,0.00,WUHU21623XXSP,2013-04-20 23:59:00,
2013-04-20 20:04:00,34.7,21.0,30.34,North,0,7.4,7.4,57,0.00,,,0.00,WUHU21623XXSP,2013-04-21 00:04:00,
2013-04-20 20:09:00,34.3,21.1,30.34,SSW,202,1.6,7.4,58,0.00,,,0.00,WUHU21623XXSP,2013-04-21 00:09:00,
2013-04-20 20:14:00,34.3,20.6,30.34,North,0,0.0,1.6,57,0.00,,,0.00,WUHU21623XXSP,2013-04-21 00:14:00,
2013-04-20 20:19:00,34.2,21.1,30.34,SSW,202,0.0,0.0,58,0.00,,,0.00,WUHU21623XXSP,2013-04-21 00:19:00,
2013-04-20 20:24:00,34.0,20.7,30.35,North,0,2.0,6.5,58,0.00,,,0.00,WUHU21623XXSP,2013-04-21 00:24:00,
2013-04-20 20:29:00,33.8,20.5,30.35,North,0,4.5,6.5,58,0.00,,,0.00,WUHU21623XXSP,2013-04-21 00:29:00,
2013-04-20 20:34:00,33.6,20.4,30.35,North,0,4.5,4.5,59,0.00,,,0.00,WUHU21623XXSP,2013-04-21 00:34:00,
2013-04-20 20:39:00,33.4,20.6,30.35,NNW,337,4.9,4.9,59,0.00,,,0.00,WUHU21623XXSP,2013-04-21 00:39:00,
2013-04-20 20:44:00,33.3,20.6,30.36,NNW,337,0.0,4.9,59,0.00,,,0.00,WUHU21623XXSP,2013-04-21 00:44:00,
2013-04-20 20:49:00,33.1,20.3,30.36,NNW,337,0.0,0.0,59,0.00,,,0.00,WUHU21623XXSP,2013-04-21 00:49:00,
2013-04-20 20:54:00,32.9,20.1,30.36,NNW,337,2.7,2.9,59,0.00,,,0.00,WUHU21623XXSP,2013-04-21 00:54:00,
2013-04-20 20:59:00,32.9,20.1,30.36,North,0,2.0,2.9,59,0.00,,,0.00,WUHU21623XXSP,2013-04-21 00:59:00,
2013-04-20 21:04:00,32.7,20.4,30.37,North,0,0.0,2.0,60,0.00,,,0.00,WUHU21623XXSP,2013-04-21 01:04:00,
2013-04-20 21:09:00,32.7,20.4,30.37,North,0,1.8,1.8,60,0.00,,,0.00,WUHU21623XXSP,2013-04-21 01:09:00,
2013-04-20 21:14:00,32.5,20.6,30.37,North,0,0.0,1.8,61,0.00,,,0.00,WUHU21623XXSP,2013-04-21 01:14:00,
2013-04-20 21:19:00,32.4,20.4,30.37,North,0,0.0,0.0,61,0.00,,,0.00,WUHU21623XXSP,2013-04-21 01:19:00,
2013-04-20 21:24:00,32.2,20.6,30.37,North,0,0.0,0.0,62,0.00,,,0.00,WUHU21623XXSP,2013-04-21 01:24:00,
2013-04-20 21:29:00,31.8,20.3,30.38,North,0,0.0,0.0,62,0.00,,,0.00,WUHU21623XXSP,2013-04-21 01:29:00,
2013-04-20 21:34:00,31.8,20.3,30.39,North,0,0.0,0.0,62,0.00,,,0.00,WUHU21623XXSP,2013-04-21 01:34:00,
2013-04-20 21:39:00,31.3,20.1,30.39,North,0,0.0,0.0,63,0.00,,,0.00,WUHU21623XXSP,2013-04-21 01:39:00,
2013-04-20 21:44:00,31.3,20.1,30.39,North,0,0.0,0.0,63,0.00,,,0.00,WUHU21623XXSP,2013-04-21 01:44:00,
2013-04-20 21:49:00,30.9,19.8,30.40,North,0,0.0,0.0,63,0.00,,,0.00,WUHU21623XXSP,2013-04-21 01:49:00,
2013-04-20 21:54:00,30.7,19.9,30.40,North,0,0.0,0.0,64,0.00,,,0.00,WUHU21623XXSP,2013-04-21 01:54:00,
2013-04-20 21:59:00,30.6,19.8,30.40,North,0,0.0,0.0,64,0.00,,,0.00,WUHU21623XXSP,2013-04-21 01:59:00,
2013-04-20 22:04:00,30.4,19.6,30.40,North,0,0.0,0.0,64,0.00,,,0.00,WUHU21623XXSP,2013-04-21 02:04:00,
2013-04-20 22:09:00,30.2,19.4,30.40,North,0,0.0,0.0,64,0.00,,,0.00,WUHU21623XXSP,2013-04-21 02:09:00,
2013-04-20 22:14:00,30.0,19.2,30.40,North,0,0.0,0.0,64,0.00,,,0.00,WUHU21623XXSP,2013-04-21 02:14:00,
2013-04-20 22:19:00,30.0,19.6,30.40,North,0,0.0,0.0,65,0.00,,,0.00,WUHU21623XXSP,2013-04-21 02:19:00,
2013-04-20 22:24:00,29.8,19.4,30.40,North,0,0.0,0.0,65,0.00,,,0.00,WUHU21623XXSP,2013-04-21 02:24:00,
2013-04-20 22:29:00,29.7,19.3,30.41,North,0,0.0,0.0,65,0.00,,,0.00,WUHU21623XXSP,2013-04-21 02:29:00,
2013-04-20 22:34:00,29.5,19.5,30.41,North,0,0.0,0.0,66,0.00,,,0.00,WUHU21623XXSP,2013-04-21 02:34:00,
2013-04-20 22:39:00,29.3,19.3,30.41,North,0,0.0,0.0,66,0.00,,,0.00,WUHU21623XXSP,2013-04-21 02:39:00,
2013-04-20 22:44:00,29.1,19.1,30.41,North,0,0.0,0.0,66,0.00,,,0.00,WUHU21623XXSP,2013-04-21 02:44:00,
2013-04-20 22:49:00,29.1,19.1,30.41,North,0,0.0,0.0,66,0.00,,,0.00,WUHU21623XXSP,2013-04-21 02:49:00,
2013-04-20 22:54:00,28.9,19.0,30.41,North,0,0.0,0.0,67,0.00,,,0.00,WUHU21623XXSP,2013-04-21 02:54:00,
2013-04-20 22:59:00,28.8,19.2,30.42,North,0,0.0,0.0,67,0.00,,,0.00,WUHU21623XXSP,2013-04-21 02:59:00,
2013-04-20 23:04:00,28.8,19.2,30.42,North,0,0.0,0.0,67,0.00,,,0.00,WUHU21623XXSP,2013-04-21 03:04:00,
2013-04-20 23:09:00,28.6,19.0,30.42,North,0,0.0,0.0,67,0.00,,,0.00,WUHU21623XXSP,2013-04-21 03:09:00,
2013-04-20 23:14:00,28.6,19.0,30.42,North,0,0.0,0.0,67,0.00,,,0.00,WUHU21623XXSP,2013-04-21 03:14:00,
2013-04-20 23:19:00,28.6,19.0,30.42,North,0,0.0,0.0,67,0.00,,,0.00,WUHU21623XXSP,2013-04-21 03:19:00,
2013-04-20 23:24:00,28.2,19.0,30.42,North,0,0.0,0.0,68,0.00,,,0.00,WUHU21623XXSP,2013-04-21 03:24:00,
2013-04-20 23:29:00,28.2,19.0,30.42,North,0,0.0,0.0,68,0.00,,,0.00,WUHU21623XXSP,2013-04-21 03:29:00,
2013-04-20 23:34:00,28.2,19.0,30.42,North,0,0.0,0.0,68,0.00,,,0.00,WUHU21623XXSP,2013-04-21 03:34:00,
2013-04-20 23:39:00,28.0,19.0,30.42,North,0,0.0,0.0,68,0.00,,,0.00,WUHU21623XXSP,2013-04-21 03:39:00,
2013-04-20 23:44:00,28.0,18.9,30.43,North,0,0.0,0.0,68,0.00,,,0.00,WUHU21623XXSP,2013-04-21 03:44:00,
2013-04-20 23:49:00,28.0,18.9,30.43,North,0,0.0,0.0,68,0.00,,,0.00,WUHU21623XXSP,2013-04-21 03:49:00,
2013-04-20 23:54:00,27.7,18.9,30.43,North,0,0.0,0.0,69,0.00,,,0.00,WUHU21623XXSP,2013-04-21 03:54:00,
2013-04-20 23:59:00,27.7,19.2,30.44,North,0,0.0,0.0,70,0.00,,,0.00,WUHU21623XXSP,2013-04-21 03:59:00,